METAR Data
IDs: Format: Raw Decoded Include TAF

Data at: 1726 UTC 03 Jun 2020

KSNA 031653Z 27004KT 10SM FEW170 SCT240 27/12 A2990 RMK AO2 SLP125 T02720122

KSNA 031126Z 0312/0412 VRB04KT P6SM BKN200
  FM032000 21010KT P6SM BKN150
  FM040300 18005KT P6SM FEW008 SCT150
  FM041000 VRB04KT P6SM BKN006